createdAt,value
2019-02-19T00:00:15.361Z,-2.53
2019-02-19T00:01:14.393Z,-2.53
2019-02-19T00:02:14.671Z,-2.50
2019-02-19T00:03:14.931Z,-2.46
2019-02-19T00:04:15.195Z,-2.43
2019-02-19T00:05:14.482Z,-2.49
2019-02-19T00:06:14.757Z,-2.43
2019-02-19T00:07:15.023Z,-2.38
2019-02-19T00:08:15.317Z,-2.39
2019-02-19T00:09:14.580Z,-2.31
2019-02-19T00:10:14.860Z,-2.31
2019-02-19T00:11:14.904Z,-2.27
2019-02-19T00:12:15.170Z,-2.26
2019-02-19T00:13:14.432Z,-2.50
2019-02-19T00:14:14.694Z,-2.59
2019-02-19T00:15:14.963Z,-2.64
2019-02-19T00:16:15.397Z,-2.70
2019-02-19T00:17:14.677Z,-2.69
2019-02-19T00:18:14.951Z,-2.64
2019-02-19T00:19:15.224Z,-2.56
2019-02-19T00:20:14.497Z,-2.45
2019-02-19T00:21:14.552Z,-2.14
2019-02-19T00:22:14.830Z,-2.18
2019-02-19T00:23:15.091Z,-2.16
2019-02-19T00:24:15.359Z,-2.11
2019-02-19T00:25:14.627Z,-2.01
2019-02-19T00:26:14.900Z,-2.01
2019-02-19T00:27:15.164Z,-2.12
2019-02-19T00:28:14.444Z,-2.35
2019-02-19T00:29:14.712Z,-2.57
2019-02-19T00:30:14.985Z,-2.64
2019-02-19T00:31:15.066Z,-2.67
2019-02-19T00:32:15.348Z,-2.70
2019-02-19T00:33:14.612Z,-2.59
2019-02-19T00:34:14.892Z,-2.59
2019-02-19T00:35:15.157Z,-2.69
2019-02-19T00:36:14.415Z,-2.70
2019-02-19T00:37:14.679Z,-2.70
2019-02-19T00:38:14.942Z,-2.71
2019-02-19T00:39:15.203Z,-2.71
2019-02-19T00:40:14.485Z,-2.77
2019-02-19T00:41:14.506Z,-2.78
2019-02-19T00:42:14.773Z,-2.85
2019-02-19T00:43:15.068Z,-2.84
2019-02-19T00:44:15.340Z,-2.82
2019-02-19T00:45:16.594Z,-2.87
2019-02-19T00:46:15.371Z,-2.92
2019-02-19T00:47:14.627Z,-2.95
2019-02-19T00:48:14.896Z,-2.92
2019-02-19T00:49:15.170Z,-2.88
2019-02-19T00:50:14.440Z,-2.88
2019-02-19T00:51:14.473Z,-2.91
2019-02-19T00:52:14.746Z,-2.88
2019-02-19T00:53:15.013Z,-2.88
2019-02-19T00:54:15.286Z,-2.88
2019-02-19T00:55:14.546Z,-2.90
2019-02-19T00:56:14.817Z,-2.88
2019-02-19T00:57:15.097Z,-2.85
2019-02-19T00:58:15.359Z,-2.85
2019-02-19T00:59:14.630Z,-2.78
2019-02-19T01:00:14.893Z,-2.77
2019-02-19T01:01:14.969Z,-2.74
2019-02-19T01:02:15.280Z,-2.77
2019-02-19T01:03:14.535Z,-2.81
2019-02-19T01:04:14.810Z,-2.78
2019-02-19T01:05:15.073Z,-2.74
2019-02-19T01:06:15.345Z,-2.71
2019-02-19T01:07:14.611Z,-2.76
2019-02-19T01:08:14.889Z,-2.77
2019-02-19T01:09:15.196Z,-2.74
2019-02-19T01:10:14.471Z,-2.74
2019-02-19T01:11:14.501Z,-2.70
2019-02-19T01:12:14.769Z,-2.67
2019-02-19T01:13:15.031Z,-2.67
2019-02-19T01:14:15.296Z,-2.67
2019-02-19T01:15:14.567Z,-2.71
2019-02-19T01:16:14.869Z,-2.74
2019-02-19T01:17:15.137Z,-2.73
2019-02-19T01:18:14.403Z,-2.73
2019-02-19T01:19:14.665Z,-2.67
2019-02-19T01:20:14.936Z,-2.63
2019-02-19T01:21:14.980Z,-2.66
2019-02-19T01:22:15.267Z,-2.71
2019-02-19T01:23:14.519Z,-2.71
2019-02-19T01:24:14.784Z,-2.48
2019-02-19T01:25:15.061Z,-2.48
2019-02-19T01:26:15.330Z,-2.70
2019-02-19T01:27:14.594Z,-2.67
2019-02-19T01:28:14.860Z,-2.71
2019-02-19T01:29:15.126Z,-2.74
2019-02-19T01:30:14.414Z,-2.90
2019-02-19T01:31:14.454Z,-3.00
2019-02-19T01:32:14.725Z,-3.08
2019-02-19T01:33:14.992Z,-3.09
2019-02-19T01:34:15.248Z,-3.11
2019-02-19T01:35:14.519Z,-3.12
2019-02-19T01:36:14.785Z,-3.09
2019-02-19T01:37:15.056Z,-3.01
2019-02-19T01:38:15.328Z,-3.07
2019-02-19T01:39:14.591Z,-3.09
2019-02-19T01:40:14.872Z,-3.11
2019-02-19T01:41:14.915Z,-3.07
2019-02-19T01:42:15.176Z,-3.05
2019-02-19T01:43:14.445Z,-3.08
2019-02-19T01:44:14.718Z,-3.05
2019-02-19T01:45:14.991Z,-2.98
2019-02-19T01:46:15.277Z,-2.91
2019-02-19T01:47:14.549Z,-2.92
2019-02-19T01:48:15.098Z,-2.87
2019-02-19T01:49:15.360Z,-3.05
2019-02-19T01:50:14.651Z,-3.13
2019-02-19T01:51:14.702Z,-3.22
2019-02-19T01:52:14.993Z,-3.29
2019-02-19T01:53:15.275Z,-3.57
2019-02-19T01:54:14.544Z,-3.63
2019-02-19T01:55:14.807Z,-3.59
2019-02-19T01:56:15.079Z,-3.50
2019-02-19T01:57:15.349Z,-3.50
2019-02-19T01:58:14.637Z,-3.33
2019-02-19T01:59:14.904Z,-3.33
2019-02-19T02:00:15.180Z,-3.16
2019-02-19T02:01:15.221Z,-3.15
2019-02-19T02:02:14.483Z,-3.12
2019-02-19T02:03:14.742Z,-3.05
2019-02-19T02:04:14.999Z,-3.11
2019-02-19T02:05:15.274Z,-3.22
2019-02-19T02:06:14.540Z,-3.23
2019-02-19T02:07:14.807Z,-3.26
2019-02-19T02:08:15.070Z,-3.25
2019-02-19T02:09:15.348Z,-3.21
2019-02-19T02:10:14.643Z,-3.12
2019-02-19T02:11:14.679Z,-3.08
2019-02-19T02:12:14.951Z,-3.11
2019-02-19T02:13:15.226Z,-3.12
2019-02-19T02:14:14.484Z,-3.09
2019-02-19T02:15:14.755Z,-3.09
2019-02-19T02:16:15.021Z,-3.11
2019-02-19T02:17:15.286Z,-3.13
2019-02-19T02:18:14.550Z,-3.12
2019-02-19T02:19:14.810Z,-3.15
2019-02-19T02:20:15.127Z,-3.15
2019-02-19T02:21:15.144Z,-3.09
2019-02-19T02:22:14.408Z,-3.00
2019-02-19T02:23:14.671Z,-2.94
2019-02-19T02:24:14.932Z,-2.95
2019-02-19T02:25:15.206Z,-3.07
2019-02-19T02:26:14.474Z,-3.32
2019-02-19T02:27:14.754Z,-3.37
2019-02-19T02:28:15.018Z,-3.40
2019-02-19T02:29:15.304Z,-3.40
2019-02-19T02:30:14.594Z,-3.37
2019-02-19T02:31:14.624Z,-3.36
2019-02-19T02:32:14.897Z,-3.37
2019-02-19T02:33:15.168Z,-3.37
2019-02-19T02:34:14.433Z,-3.36
2019-02-19T02:35:14.708Z,-3.36
2019-02-19T02:36:14.974Z,-3.35
2019-02-19T02:37:15.246Z,-3.30
2019-02-19T02:38:14.508Z,-3.30
2019-02-19T02:39:14.791Z,-3.26
2019-02-19T02:40:15.093Z,-3.25
2019-02-19T02:41:15.105Z,-3.22
2019-02-19T02:42:14.373Z,-3.25
2019-02-19T02:43:14.642Z,-3.21
2019-02-19T02:44:14.897Z,-3.23
2019-02-19T02:45:15.180Z,-3.23
2019-02-19T02:46:14.463Z,-3.25
2019-02-19T02:47:14.732Z,-3.25
2019-02-19T02:48:14.994Z,-3.23
2019-02-19T02:49:15.608Z,-3.16
2019-02-19T02:50:14.886Z,-3.23
2019-02-19T02:51:14.935Z,-3.25
2019-02-19T02:52:15.222Z,-3.32
2019-02-19T02:53:14.495Z,-3.37
2019-02-19T02:54:14.757Z,-3.28
2019-02-19T02:55:15.037Z,-3.30
2019-02-19T02:56:15.318Z,-3.36
2019-02-19T02:57:14.586Z,-3.36
2019-02-19T02:58:14.850Z,-3.36
2019-02-19T02:59:15.122Z,-3.36
2019-02-19T03:00:14.395Z,-3.36
2019-02-19T03:01:14.440Z,-3.41
2019-02-19T03:02:14.715Z,-3.39
2019-02-19T03:03:14.995Z,-3.37
2019-02-19T03:04:15.272Z,-3.32
2019-02-19T03:05:14.546Z,-3.29
2019-02-19T03:06:14.800Z,-3.25
2019-02-19T03:07:15.065Z,-3.33
2019-02-19T03:08:15.338Z,-3.29
2019-02-19T03:09:14.621Z,-3.23
2019-02-19T03:10:14.893Z,-3.29
2019-02-19T03:11:14.930Z,-3.33
2019-02-19T03:12:15.203Z,-3.33
2019-02-19T03:13:14.467Z,-3.28
2019-02-19T03:14:14.737Z,-3.30
2019-02-19T03:15:15.015Z,-3.32
2019-02-19T03:16:15.175Z,-3.30
2019-02-19T03:17:14.450Z,-3.29
2019-02-19T03:18:14.714Z,-3.21
2019-02-19T03:19:14.980Z,-3.09
2019-02-19T03:20:15.251Z,-3.16
2019-02-19T03:21:15.304Z,-3.13
2019-02-19T03:22:14.575Z,-3.02
2019-02-19T03:23:14.852Z,-3.00
2019-02-19T03:24:15.122Z,-3.07
2019-02-19T03:25:14.401Z,-3.18
2019-02-19T03:26:14.666Z,-3.13
2019-02-19T03:27:14.929Z,-3.11
2019-02-19T03:28:15.189Z,-3.33
2019-02-19T03:29:14.455Z,-3.40
2019-02-19T03:30:14.739Z,-3.44
2019-02-19T03:31:14.783Z,-3.49
2019-02-19T03:32:15.070Z,-3.59
2019-02-19T03:33:14.391Z,-3.57
2019-02-19T03:34:14.672Z,-3.50
2019-02-19T03:35:14.945Z,-3.46
2019-02-19T03:36:15.211Z,-3.46
2019-02-19T03:37:14.484Z,-3.47
2019-02-19T03:38:14.761Z,-3.49
2019-02-19T03:39:15.029Z,-3.47
2019-02-19T03:40:15.335Z,-3.49
2019-02-19T03:41:15.356Z,-3.44
2019-02-19T03:42:14.624Z,-3.47
2019-02-19T03:43:14.892Z,-3.47
2019-02-19T03:44:15.172Z,-3.50
2019-02-19T03:45:14.476Z,-3.49
2019-02-19T03:46:14.752Z,-3.47
2019-02-19T03:47:15.023Z,-3.47
2019-02-19T03:48:15.284Z,-3.46
2019-02-19T03:49:14.556Z,-3.47
2019-02-19T03:50:14.871Z,-3.47
2019-02-19T03:51:14.885Z,-3.44
2019-02-19T03:52:15.152Z,-3.44
2019-02-19T03:53:14.434Z,-3.40
2019-02-19T03:54:14.700Z,-3.40
2019-02-19T03:55:14.967Z,-3.36
2019-02-19T03:56:15.237Z,-3.33
2019-02-19T03:57:14.501Z,-3.36
2019-02-19T03:58:14.769Z,-3.37
2019-02-19T03:59:15.054Z,-3.37
2019-02-19T04:00:15.329Z,-3.39
2019-02-19T04:01:14.368Z,-3.39
2019-02-19T04:02:14.633Z,-3.33
2019-02-19T04:03:14.905Z,-3.30
2019-02-19T04:04:15.174Z,-3.32
2019-02-19T04:05:14.446Z,-3.37
2019-02-19T04:06:14.749Z,-3.44
2019-02-19T04:07:15.040Z,-3.44
2019-02-19T04:08:15.301Z,-3.44
2019-02-19T04:09:14.554Z,-3.47
2019-02-19T04:10:14.828Z,-3.49
2019-02-19T04:11:14.874Z,-3.51
2019-02-19T04:12:15.139Z,-3.53
2019-02-19T04:13:14.399Z,-3.53
2019-02-19T04:14:14.669Z,-3.56
2019-02-19T04:15:14.969Z,-3.56
2019-02-19T04:16:21.215Z,-3.60
2019-02-19T04:17:14.897Z,-3.54
2019-02-19T04:18:15.211Z,-3.54
2019-02-19T04:19:14.492Z,-3.56
2019-02-19T04:20:14.765Z,-3.50
2019-02-19T04:21:14.813Z,-3.51
2019-02-19T04:22:15.079Z,-3.51
2019-02-19T04:23:15.351Z,-3.53
2019-02-19T04:24:14.623Z,-3.54
2019-02-19T04:25:14.889Z,-3.50
2019-02-19T04:26:15.197Z,-3.46
2019-02-19T04:27:14.475Z,-3.44
2019-02-19T04:28:14.760Z,-3.44
2019-02-19T04:29:15.020Z,-3.46
2019-02-19T04:30:15.308Z,-3.44
2019-02-19T04:31:15.378Z,-3.44
2019-02-19T04:32:14.648Z,-3.41
2019-02-19T04:33:14.906Z,-3.36
2019-02-19T04:34:15.187Z,-3.32
2019-02-19T04:35:14.458Z,-3.28
2019-02-19T04:36:14.722Z,-3.32
2019-02-19T04:37:14.996Z,-3.26
2019-02-19T04:38:15.278Z,-3.25
2019-02-19T04:39:14.538Z,-3.28
2019-02-19T04:40:14.814Z,-3.23
2019-02-19T04:41:14.888Z,-3.23
2019-02-19T04:42:15.157Z,-3.23
2019-02-19T04:43:14.414Z,-3.26
2019-02-19T04:44:14.705Z,-3.28
2019-02-19T04:45:14.972Z,-3.29
2019-02-19T04:46:15.507Z,-3.23
2019-02-19T04:47:14.778Z,-3.19
2019-02-19T04:48:15.043Z,-3.18
2019-02-19T04:49:15.309Z,-3.07
2019-02-19T04:50:14.603Z,-3.05
2019-02-19T04:51:14.644Z,-3.12
2019-02-19T04:52:14.918Z,-3.19
2019-02-19T04:53:15.182Z,-3.18
2019-02-19T04:54:14.452Z,-3.25
2019-02-19T04:55:14.734Z,-3.29
2019-02-19T04:56:14.999Z,-3.29
2019-02-19T04:57:15.272Z,-3.44
2019-02-19T04:58:14.531Z,-3.67
2019-02-19T04:59:14.798Z,-3.63
2019-02-19T05:00:15.075Z,-3.67
2019-02-19T05:01:15.120Z,-3.63
2019-02-19T05:02:14.377Z,-3.64
2019-02-19T05:03:14.639Z,-3.60
2019-02-19T05:04:14.899Z,-3.57
2019-02-19T05:05:15.165Z,-3.47
2019-02-19T05:06:14.440Z,-3.50
2019-02-19T05:07:14.711Z,-3.49
2019-02-19T05:08:14.982Z,-3.44
2019-02-19T05:09:15.257Z,-3.40
2019-02-19T05:10:14.544Z,-3.33
2019-02-19T05:11:14.565Z,-3.33
2019-02-19T05:12:14.826Z,-3.29
2019-02-19T05:13:15.094Z,-3.29
2019-02-19T05:14:15.361Z,-3.30
2019-02-19T05:15:14.625Z,-3.13
2019-02-19T05:16:14.891Z,-3.21
2019-02-19T05:17:16.368Z,-3.16
2019-02-19T05:18:14.738Z,-3.16
2019-02-19T05:19:14.995Z,-3.25
2019-02-19T05:20:15.271Z,-3.32
2019-02-19T05:21:15.353Z,-3.35
2019-02-19T05:22:14.736Z,-3.36
2019-02-19T05:23:15.003Z,-3.41
2019-02-19T05:24:15.268Z,-3.39
2019-02-19T05:25:14.545Z,-3.35
2019-02-19T05:26:14.811Z,-3.32
2019-02-19T05:27:15.068Z,-3.28
2019-02-19T05:28:15.335Z,-3.26
2019-02-19T05:29:14.595Z,-3.22
2019-02-19T05:30:14.881Z,-3.35
2019-02-19T05:31:14.928Z,-3.40
2019-02-19T05:32:15.195Z,-3.39
2019-02-19T05:33:14.473Z,-3.43
2019-02-19T05:34:14.772Z,-3.46
2019-02-19T05:35:15.049Z,-3.35
2019-02-19T05:36:15.325Z,-3.28
2019-02-19T05:37:14.608Z,-3.30
2019-02-19T05:38:14.933Z,-3.29
2019-02-19T05:39:15.203Z,-3.29
2019-02-19T05:40:14.463Z,-3.23
2019-02-19T05:41:14.522Z,-3.21
2019-02-19T05:42:14.888Z,-3.21
2019-02-19T05:43:15.156Z,-3.30
2019-02-19T05:44:14.637Z,-3.39
2019-02-19T05:45:14.896Z,-3.44
2019-02-19T05:46:15.157Z,-3.35
2019-02-19T05:47:14.437Z,-3.36
2019-02-19T05:48:14.722Z,-3.50
2019-02-19T05:49:15.002Z,-3.54
2019-02-19T05:50:15.268Z,-3.56
2019-02-19T05:51:15.324Z,-3.51
2019-02-19T05:52:14.595Z,-3.59
2019-02-19T05:53:14.878Z,-3.51
2019-02-19T05:54:15.149Z,-3.51
2019-02-19T05:55:14.433Z,-3.67
2019-02-19T05:56:14.701Z,-3.53
2019-02-19T05:57:14.977Z,-3.59
2019-02-19T05:58:15.236Z,-3.54
2019-02-19T05:59:14.524Z,-3.53
2019-02-19T06:00:14.830Z,-3.47
2019-02-19T06:01:14.849Z,-3.44
2019-02-19T06:02:15.107Z,-3.41
2019-02-19T06:03:14.361Z,-3.41
2019-02-19T06:04:14.661Z,-3.32
2019-02-19T06:05:14.919Z,-3.29
2019-02-19T06:06:15.182Z,-3.28
2019-02-19T06:07:14.454Z,-3.28
2019-02-19T06:08:14.717Z,-3.35
2019-02-19T06:09:14.977Z,-3.43
2019-02-19T06:10:15.256Z,-3.41
2019-02-19T06:11:15.314Z,-3.37
2019-02-19T06:12:14.577Z,-3.36
2019-02-19T06:13:14.837Z,-3.35
2019-02-19T06:14:15.091Z,-3.36
2019-02-19T06:15:15.375Z,-3.43
2019-02-19T06:16:14.641Z,-3.47
2019-02-19T06:17:14.902Z,-3.50
2019-02-19T06:18:15.156Z,-3.64
2019-02-19T06:19:14.442Z,-3.61
2019-02-19T06:20:14.715Z,-3.53
2019-02-19T06:21:14.763Z,-3.56
2019-02-19T06:22:15.022Z,-3.61
2019-02-19T06:23:15.287Z,-3.64
2019-02-19T06:24:14.558Z,-3.64
2019-02-19T06:25:14.853Z,-3.66
2019-02-19T06:26:15.132Z,-3.57
2019-02-19T06:27:14.408Z,-3.57
2019-02-19T06:28:14.673Z,-3.49
2019-02-19T06:29:14.939Z,-3.40
2019-02-19T06:30:15.219Z,-3.32
2019-02-19T06:31:15.264Z,-3.54
2019-02-19T06:32:14.524Z,-3.64
2019-02-19T06:33:14.789Z,-3.74
2019-02-19T06:34:15.051Z,-3.77
2019-02-19T06:35:15.326Z,-3.67
2019-02-19T06:36:14.620Z,-3.64
2019-02-19T06:37:14.895Z,-3.67
2019-02-19T06:38:15.164Z,-3.67
2019-02-19T06:39:14.428Z,-3.67
2019-02-19T06:40:14.704Z,-3.61
2019-02-19T06:41:14.760Z,-3.54
2019-02-19T06:42:15.023Z,-3.44
2019-02-19T06:43:15.283Z,-3.36
2019-02-19T06:44:14.549Z,-3.28
2019-02-19T06:45:14.842Z,-3.21
2019-02-19T06:46:15.116Z,-3.09
2019-02-19T06:47:14.379Z,-3.08
2019-02-19T06:48:14.649Z,-3.00
2019-02-19T06:49:14.917Z,-2.91
2019-02-19T06:50:15.204Z,-2.92
2019-02-19T06:51:15.245Z,-2.84
2019-02-19T06:52:14.504Z,-2.91
2019-02-19T06:53:14.773Z,-2.95
2019-02-19T06:54:15.034Z,-2.94
2019-02-19T06:55:15.303Z,-2.91
2019-02-19T06:56:14.626Z,-2.88
2019-02-19T06:57:14.892Z,-2.98
2019-02-19T06:58:15.167Z,-2.97
2019-02-19T06:59:14.442Z,-2.95
2019-02-19T07:00:14.719Z,-2.90
2019-02-19T07:01:14.773Z,-2.87
2019-02-19T07:02:15.033Z,-2.81
2019-02-19T07:03:15.299Z,-2.74
2019-02-19T07:04:14.567Z,-2.73
2019-02-19T07:05:14.821Z,-2.74
2019-02-19T07:06:15.085Z,-2.76
2019-02-19T07:07:15.356Z,-2.62
2019-02-19T07:08:14.625Z,-2.57
2019-02-19T07:09:14.907Z,-2.56
2019-02-19T07:10:15.179Z,-2.52
2019-02-19T07:11:15.257Z,-2.50
2019-02-19T07:12:14.530Z,-2.70
2019-02-19T07:13:14.803Z,-2.81
2019-02-19T07:14:15.076Z,-2.69
2019-02-19T07:15:15.336Z,-2.67
2019-02-19T07:16:14.610Z,-2.66
2019-02-19T07:17:15.792Z,-2.64
2019-02-19T07:18:15.288Z,-2.63
2019-02-19T07:19:14.559Z,-2.60
2019-02-19T07:20:14.838Z,-2.54
2019-02-19T07:21:14.879Z,-2.52
2019-02-19T07:22:15.158Z,-2.50
2019-02-19T07:23:14.420Z,-2.48
2019-02-19T07:24:14.691Z,-2.43
2019-02-19T07:25:14.957Z,-2.38
2019-02-19T07:26:15.252Z,-2.32
2019-02-19T07:27:14.523Z,-2.27
2019-02-19T07:28:14.798Z,-2.25
2019-02-19T07:29:15.168Z,-2.23
2019-02-19T07:30:14.472Z,-2.18
2019-02-19T07:31:14.523Z,-2.12
2019-02-19T07:32:14.797Z,-2.12
2019-02-19T07:33:15.086Z,-2.05
2019-02-19T07:34:15.357Z,-2.05
2019-02-19T07:35:14.633Z,-1.98
2019-02-19T07:36:14.902Z,-1.92
2019-02-19T07:37:15.177Z,-1.85
2019-02-19T07:38:14.442Z,-1.81
2019-02-19T07:39:14.711Z,-1.80
2019-02-19T07:40:14.990Z,-1.68
2019-02-19T07:41:15.042Z,-1.63
2019-02-19T07:42:15.306Z,-1.59
2019-02-19T07:43:14.579Z,-1.57
2019-02-19T07:44:14.841Z,-1.52
2019-02-19T07:45:15.105Z,-1.50
2019-02-19T07:46:14.380Z,-1.47
2019-02-19T07:47:14.648Z,-1.42
2019-02-19T07:48:14.917Z,-1.35
2019-02-19T07:49:15.174Z,-1.25
2019-02-19T07:50:14.456Z,-1.25
2019-02-19T07:51:14.504Z,-1.21
2019-02-19T07:52:14.765Z,-1.15
2019-02-19T07:53:15.037Z,-1.15
2019-02-19T07:54:15.292Z,-1.09
2019-02-19T07:55:14.571Z,-1.02
2019-02-19T07:56:14.839Z,-1.01
2019-02-19T07:57:15.121Z,-1.02
2019-02-19T07:58:14.402Z,-0.94
2019-02-19T07:59:14.721Z,-0.87
2019-02-19T08:00:14.998Z,-0.81
2019-02-19T08:01:15.029Z,-0.81
2019-02-19T08:02:15.289Z,-0.76
2019-02-19T08:03:14.564Z,-0.56
2019-02-19T08:04:14.821Z,-0.56
2019-02-19T08:05:15.085Z,-0.52
2019-02-19T08:06:15.393Z,-0.49
2019-02-19T08:07:14.653Z,-0.33
2019-02-19T08:08:14.912Z,-0.28
2019-02-19T08:09:15.176Z,-0.25
2019-02-19T08:10:14.444Z,-0.22
2019-02-19T08:11:14.506Z,-0.15
2019-02-19T08:12:14.780Z,-0.12
2019-02-19T08:13:15.051Z,-0.15
2019-02-19T08:14:15.332Z,-0.03
2019-02-19T08:15:14.616Z,0.03
2019-02-19T08:16:14.878Z,0.02
2019-02-19T08:17:15.153Z,0.03
2019-02-19T08:18:14.412Z,0.20
2019-02-19T08:19:14.674Z,0.54
2019-02-19T08:20:15.573Z,0.83
2019-02-19T08:21:14.984Z,0.79
2019-02-19T08:22:15.246Z,0.71
2019-02-19T08:23:14.510Z,0.58
2019-02-19T08:24:14.785Z,0.58
2019-02-19T08:25:15.070Z,0.71
2019-02-19T08:26:15.359Z,0.74
2019-02-19T08:27:14.624Z,0.81
2019-02-19T08:28:14.900Z,0.88
2019-02-19T08:29:15.167Z,0.98
2019-02-19T08:30:14.431Z,1.10
2019-02-19T08:31:14.480Z,1.40
2019-02-19T08:32:14.745Z,1.72
2019-02-19T08:33:15.013Z,1.62
2019-02-19T08:34:15.282Z,1.65
2019-02-19T08:35:14.550Z,1.72
2019-02-19T08:36:14.820Z,1.72
2019-02-19T08:37:15.080Z,1.83
2019-02-19T08:38:15.337Z,2.03
2019-02-19T08:39:14.606Z,2.23
2019-02-19T08:40:14.893Z,2.43
2019-02-19T08:41:14.939Z,2.33
2019-02-19T08:42:15.208Z,2.44
2019-02-19T08:43:14.475Z,2.50
2019-02-19T08:44:14.748Z,2.61
2019-02-19T08:45:15.021Z,2.69
2019-02-19T08:46:15.312Z,2.75
2019-02-19T08:47:14.572Z,2.76
2019-02-19T08:48:14.843Z,2.78
2019-02-19T08:49:15.115Z,2.81
2019-02-19T08:50:14.389Z,2.91
2019-02-19T08:51:14.417Z,2.99
2019-02-19T08:52:14.685Z,3.02
2019-02-19T08:53:14.986Z,3.03
2019-02-19T08:54:15.256Z,3.20
2019-02-19T08:55:14.515Z,3.34
2019-02-19T08:56:14.792Z,3.22
2019-02-19T08:57:15.065Z,3.20
2019-02-19T08:58:14.364Z,3.44
2019-02-19T08:59:14.636Z,3.34
2019-02-19T09:00:14.937Z,3.36
2019-02-19T09:01:14.988Z,3.43
2019-02-19T09:02:15.257Z,3.58
2019-02-19T09:03:14.518Z,3.57
2019-02-19T09:04:14.784Z,3.77
2019-02-19T09:05:15.046Z,4.02
2019-02-19T09:06:15.334Z,4.06
2019-02-19T09:07:14.637Z,4.21
2019-02-19T09:08:14.915Z,4.19
2019-02-19T09:09:15.184Z,4.20
2019-02-19T09:10:14.466Z,4.43
2019-02-19T09:11:14.531Z,4.44
2019-02-19T09:12:14.815Z,4.41
2019-02-19T09:13:15.083Z,4.41
2019-02-19T09:14:15.335Z,4.60
2019-02-19T09:15:14.605Z,4.74
2019-02-19T09:16:14.886Z,4.82
2019-02-19T09:17:15.146Z,4.89
2019-02-19T09:18:14.408Z,4.93
2019-02-19T09:19:14.679Z,4.92
2019-02-19T09:20:14.951Z,5.33
2019-02-19T09:21:15.037Z,5.68
2019-02-19T09:22:15.320Z,5.68
2019-02-19T09:23:14.584Z,5.64
2019-02-19T09:24:14.854Z,5.70
2019-02-19T09:25:15.121Z,5.72
2019-02-19T09:26:14.389Z,5.74
2019-02-19T09:27:14.675Z,5.64
2019-02-19T09:28:14.947Z,5.77
2019-02-19T09:29:15.218Z,5.91
2019-02-19T09:30:14.479Z,5.88
2019-02-19T09:31:14.555Z,5.84
2019-02-19T09:32:14.836Z,5.88
2019-02-19T09:33:15.110Z,5.95
2019-02-19T09:34:14.382Z,5.98
2019-02-19T09:35:14.655Z,5.99
2019-02-19T09:36:14.913Z,6.09
2019-02-19T09:37:15.179Z,6.12
2019-02-19T09:38:14.442Z,6.21
2019-02-19T09:39:14.789Z,6.21
2019-02-19T09:40:15.072Z,6.37
2019-02-19T09:41:15.123Z,6.43
2019-02-19T09:42:14.397Z,6.45
2019-02-19T09:43:14.668Z,6.47
2019-02-19T09:44:14.927Z,6.48
2019-02-19T09:45:15.192Z,6.49
2019-02-19T09:46:14.456Z,6.48
2019-02-19T09:47:14.731Z,6.45
2019-02-19T09:48:15.010Z,6.58
2019-02-19T09:49:15.278Z,6.65
2019-02-19T09:50:14.597Z,6.68
2019-02-19T09:51:14.622Z,6.68
2019-02-19T09:52:14.888Z,6.69
2019-02-19T09:53:15.162Z,6.67
2019-02-19T09:54:14.428Z,6.69
2019-02-19T09:55:14.701Z,6.67
2019-02-19T09:56:14.971Z,6.63
2019-02-19T09:57:15.246Z,6.58
2019-02-19T09:58:14.550Z,6.58
2019-02-19T09:59:14.825Z,6.57
2019-02-19T10:00:15.126Z,6.58
2019-02-19T10:01:15.157Z,6.64
2019-02-19T10:02:14.424Z,6.86
2019-02-19T10:03:14.688Z,6.85
2019-02-19T10:04:14.966Z,6.78
2019-02-19T10:05:15.236Z,6.76
2019-02-19T10:06:14.496Z,6.75
2019-02-19T10:07:14.775Z,6.79
2019-02-19T10:08:15.046Z,6.78
2019-02-19T10:09:15.323Z,6.82
2019-02-19T10:10:14.605Z,6.81
2019-02-19T10:11:14.636Z,6.82
2019-02-19T10:12:14.910Z,6.81
2019-02-19T10:13:15.171Z,6.86
2019-02-19T10:14:14.458Z,6.82
2019-02-19T10:15:14.742Z,6.84
2019-02-19T10:16:15.008Z,6.85
2019-02-19T10:17:15.283Z,6.75
2019-02-19T10:18:14.570Z,6.78
2019-02-19T10:19:14.835Z,6.78
2019-02-19T10:20:15.111Z,6.79
2019-02-19T10:21:15.156Z,6.81
2019-02-19T10:22:14.444Z,6.82
2019-02-19T10:23:14.725Z,6.79
2019-02-19T10:24:14.993Z,6.78
2019-02-19T10:25:15.277Z,6.79
2019-02-19T10:26:14.543Z,6.84
2019-02-19T10:27:14.801Z,6.88
2019-02-19T10:28:15.068Z,6.95
2019-02-19T10:29:15.354Z,6.96
2019-02-19T10:30:14.630Z,7.00
2019-02-19T10:31:14.666Z,7.02
2019-02-19T10:32:14.948Z,7.00
2019-02-19T10:33:15.218Z,7.00
2019-02-19T10:34:14.494Z,7.00
2019-02-19T10:35:14.757Z,7.00
2019-02-19T10:36:15.025Z,7.02
2019-02-19T10:37:15.305Z,7.10
2019-02-19T10:38:14.580Z,7.12
2019-02-19T10:39:14.851Z,7.22
2019-02-19T10:40:15.127Z,7.26
2019-02-19T10:41:15.178Z,7.22
2019-02-19T10:42:14.452Z,7.23
2019-02-19T10:43:14.715Z,7.24
2019-02-19T10:44:14.981Z,7.19
2019-02-19T10:45:15.265Z,7.19
2019-02-19T10:46:14.546Z,7.19
2019-02-19T10:47:14.801Z,7.20
2019-02-19T10:48:18.898Z,7.31
2019-02-19T10:49:14.698Z,7.47
2019-02-19T10:50:14.985Z,7.54
2019-02-19T10:51:14.995Z,7.66
2019-02-19T10:52:15.251Z,7.71
2019-02-19T10:53:14.513Z,7.89
2019-02-19T10:54:14.782Z,8.02
2019-02-19T10:55:15.044Z,8.08
2019-02-19T10:56:15.322Z,8.19
2019-02-19T10:57:14.597Z,8.36
2019-02-19T10:58:22.441Z,8.37
2019-02-19T10:59:14.612Z,8.37
2019-02-19T11:00:14.898Z,8.37
2019-02-19T11:01:14.965Z,8.36
2019-02-19T11:02:15.224Z,8.33
2019-02-19T11:03:14.487Z,8.33
2019-02-19T11:04:14.752Z,8.39
2019-02-19T11:05:15.040Z,8.26
2019-02-19T11:06:15.308Z,8.21
2019-02-19T11:07:14.566Z,8.24
2019-02-19T11:08:14.835Z,8.24
2019-02-19T11:09:15.096Z,8.24
2019-02-19T11:10:14.380Z,8.30
2019-02-19T11:11:14.415Z,8.34
2019-02-19T11:12:14.680Z,8.31
2019-02-19T11:13:14.940Z,8.27
2019-02-19T11:14:15.218Z,8.29
2019-02-19T11:15:14.481Z,8.27
2019-02-19T11:16:14.759Z,8.34
2019-02-19T11:17:15.026Z,8.27
2019-02-19T11:18:15.313Z,8.31
2019-02-19T11:19:14.574Z,8.40
2019-02-19T11:20:14.860Z,8.44
2019-02-19T11:21:19.460Z,8.47
2019-02-19T11:22:15.324Z,8.45
2019-02-19T11:23:14.634Z,8.47
2019-02-19T11:24:14.919Z,8.40
2019-02-19T11:25:15.180Z,8.40
2019-02-19T11:26:14.718Z,8.44
2019-02-19T11:27:16.594Z,8.41
2019-02-19T11:28:15.172Z,8.40
2019-02-19T11:29:14.451Z,8.39
2019-02-19T11:30:14.717Z,8.34
2019-02-19T11:31:14.764Z,8.37
2019-02-19T11:32:15.028Z,8.37
2019-02-19T11:33:15.305Z,8.31
2019-02-19T11:34:14.568Z,8.30
2019-02-19T11:35:14.839Z,8.19
2019-02-19T11:36:15.119Z,8.26
2019-02-19T11:37:14.383Z,8.29
2019-02-19T11:38:14.646Z,8.33
2019-02-19T11:39:14.922Z,8.52
2019-02-19T11:40:15.202Z,8.51
2019-02-19T11:41:15.256Z,8.55
2019-02-19T11:42:14.523Z,8.72
2019-02-19T11:43:14.785Z,8.80
2019-02-19T11:44:15.047Z,8.82
2019-02-19T11:45:15.316Z,8.79
2019-02-19T11:46:14.577Z,8.79
2019-02-19T11:47:14.850Z,8.86
2019-02-19T11:48:15.110Z,8.91
2019-02-19T11:49:14.380Z,8.96
2019-02-19T11:50:14.651Z,8.84
2019-02-19T11:51:14.693Z,8.78
2019-02-19T11:52:14.967Z,8.91
2019-02-19T11:53:15.224Z,8.91
2019-02-19T11:54:14.490Z,8.82
2019-02-19T11:55:14.463Z,8.75
2019-02-19T11:56:14.730Z,8.74
2019-02-19T11:57:15.016Z,8.72
2019-02-19T11:58:15.314Z,8.72
2019-02-19T11:59:14.584Z,8.84
2019-02-19T12:00:14.878Z,8.69
2019-02-19T12:01:14.932Z,8.78
2019-02-19T12:02:15.190Z,8.82
2019-02-19T12:03:14.460Z,8.94
2019-02-19T12:04:14.731Z,8.78
2019-02-19T12:05:15.010Z,8.72
2019-02-19T12:06:15.273Z,8.64
2019-02-19T12:07:14.535Z,8.91
2019-02-19T12:08:14.803Z,8.88
2019-02-19T12:09:15.074Z,8.94
2019-02-19T12:10:15.357Z,8.79
2019-02-19T12:11:14.396Z,8.69
2019-02-19T12:12:14.658Z,8.69
2019-02-19T12:13:14.923Z,8.76
2019-02-19T12:14:15.188Z,8.85
2019-02-19T12:15:14.472Z,8.86
2019-02-19T12:16:14.745Z,8.98
2019-02-19T12:17:15.015Z,9.03
2019-02-19T12:18:15.274Z,9.07
2019-02-19T12:19:14.560Z,9.10
2019-02-19T12:20:14.834Z,9.17
2019-02-19T12:21:14.859Z,9.19
2019-02-19T12:22:15.119Z,9.10
2019-02-19T12:23:14.389Z,9.23
2019-02-19T12:24:14.664Z,9.12
2019-02-19T12:25:14.934Z,9.31
2019-02-19T12:26:15.193Z,9.26
2019-02-19T12:27:14.466Z,9.26
2019-02-19T12:28:14.734Z,9.16
2019-02-19T12:29:15.002Z,9.15
2019-02-19T12:30:15.280Z,9.23
2019-02-19T12:31:15.327Z,9.29
2019-02-19T12:32:14.585Z,9.16
2019-02-19T12:33:14.850Z,9.03
2019-02-19T12:34:15.125Z,9.16
2019-02-19T12:35:14.404Z,9.16
2019-02-19T12:36:14.678Z,9.29
2019-02-19T12:37:14.950Z,9.22
2019-02-19T12:38:15.215Z,9.34
2019-02-19T12:39:14.492Z,9.27
2019-02-19T12:40:14.773Z,9.36
2019-02-19T12:41:14.801Z,9.33
2019-02-19T12:42:15.064Z,9.24
2019-02-19T12:43:15.338Z,9.27
2019-02-19T12:44:14.598Z,9.30
2019-02-19T12:45:14.867Z,9.33
2019-02-19T12:46:15.149Z,9.34
2019-02-19T12:47:14.418Z,9.40
2019-02-19T12:48:14.709Z,9.36
2019-02-19T12:49:16.413Z,9.36
2019-02-19T12:50:14.804Z,9.33
2019-02-19T12:51:14.858Z,9.36
2019-02-19T12:52:15.125Z,9.38
2019-02-19T12:53:14.408Z,9.17
2019-02-19T12:54:14.687Z,9.17
2019-02-19T12:55:14.993Z,9.20
2019-02-19T12:56:15.269Z,9.15
2019-02-19T12:57:14.748Z,9.03
2019-02-19T12:58:15.059Z,8.96
2019-02-19T12:59:15.338Z,8.95
2019-02-19T13:00:14.635Z,8.96
2019-02-19T13:01:16.092Z,9.00